ユジノサハリンスク の空港の天気 - METARとTAF

ホムトヴォ空港(ユジノサハリンスク) ( UHSS / UUS ) - ロシア ユジノサハリンスク
飛行場実況気象(Metar)
観測時間04/26 02:00 +10 (04/25 16:00 UTC)
風向・風速北北東 2m/s
視程7000m
天気現象弱いしゅう雨
全天の8割程度の雲 雲底高度 550m
気温2℃
湿度100%
気圧1011hPa
METARUHSS 251600Z 02002MPS 350V060 7000 -SHRA BKN018CB 02/02 Q1011 R01/70D NOSIG RMK MT OBSC QFE757/1010
過去の天気等 Google飛行場航空写真 Wunderground天気予報

過去48時間のMETAR

飛行場予報(TAF)
発表時間: 4/26 00:00 +10 (4/25 14:00 UTC)
予報対象時間: 26日1時 +10 ~ 27日7時 +10
風向・風速北 7m/s
視程5,000m
天気現象弱いしゅう雨 もや
全天の8割程度の雲 雲底高度 240m
全天の8割程度の積乱雲 雲底高度 760m
26日1時 +10 ~ 26日11時 +10 に一時的に
視程1,400m
天気現象しゅう雨 もや
全天の8割程度の雲 雲底高度 90m
全天の8割程度の積乱雲 雲底高度 520m
26日11時 +10 から
風向・風速西南西 5m/s
視程10km以上
全天の8割程度の積乱雲 雲底高度 610m
TAF UHSS 251400Z 2515/2621 36007MPS 5000 -SHRA BR BKN008 BKN025CB
TEMPO 2515/2601 1400 SHRA BR BKN003 BKN017CB
FM260100 24005MPS 9999 BKN020CB